Latest Coastal Weather Observations for Merimbula

IDN60701

Issued at 5:55 am EST Sunday 24 August 2014 (issued every 10 minutes, with the page automatically refreshed every 10 minutes)

About coastal observations | Map of coastal stations | Coastal observations for NSW | Marine services | Other Formats
Station Details ID: 069147 Name: MERIMBULA AIRPORT AWS Lat: -36.91 Lon: 149.90 Height: 1.5 m
Data from the previous 72 hours. | See also: Recent months at Merimbula
Date/Time
EST
Temp

°C
Wind Pressure Rain
since 9am
mm
Weather Cloud Vis
km
Sea
Height
m
Swell
Dir
 
Speed
knots
Gust
knots
hPa Trend Height
m
Period
s
Dir
24/05:37am 6.4 CALM 0 0 1028.3 - 0.0 - - 4 - - - -
24/05:30am 6.6 CALM 0 0 1028.3 - 0.0 - - 9 - - - -
24/05:03am 6.5 CALM 0 0 1028.2 - 0.0 - - 9 - - - -
24/05:00am 6.6 CALM 0 0 1028.1 - 0.0 - - 9 - - - -
24/04:30am 6.5 CALM 0 0 1028.0 - 0.0 - - 3 - - - -
24/04:00am 6.7 CALM 0 0 1028.2 - 0.0 - Partly cloudy 2 - - - -
24/03:30am 6.5 CALM 0 0 1028.4 - 0.0 - - 1 - - - -
24/03:00am 6.7 CALM 0 0 1028.7 - 0.0 - - 1 - - - -
24/02:30am 7.1 CALM 0 0 1028.9 - 0.0 - - 2 - - - -
24/02:00am 7.9 CALM 0 0 1029.1 - 0.0 - - 3 - - - -
24/01:30am 7.5 CALM 0 0 1029.3 - 0.0 - - 0.9 - - - -
24/01:00am 8.2 CALM 0 0 1029.5 - 0.0 - - 2 - - - -
24/12:47am 8.4 CALM 0 0 1029.5 - 0.0 - - 5 - - - -
24/12:30am 8.9 CALM 0 0 1029.7 - 0.0 - - 8 - - - -
24/12:00am 9.5 NW 0 0 1029.7 - 0.0 - - 10 - - - -
 
Date/Time
EST
Temp

°C
Wind Pressure Rain
since 9am
mm
Weather Cloud Vis
km
Sea
Height
m
Swell
Dir
 
Speed
knots
Gust
knots
hPa Trend Height
m
Period
s
Dir
23/11:30pm 9.6 CALM 0 0 1030.1 - 0.0 - - 10 - - - -
23/11:18pm 9.2 CALM 0 0 1030.1 - 0.0 - - 5 - - - -
23/11:00pm 9.2 CALM 0 0 1030.2 - 0.0 - - 10 - - - -
23/10:30pm 9.7 CALM 0 0 1030.2 - 0.0 - Partly cloudy 10 - - - -
23/10:00pm 10.5 CALM 0 0 1030.3 - 0.0 - Partly cloudy 10 - - - -
23/09:30pm 10.8 CALM 0 0 1030.4 - 0.0 - - 10 - - - -
23/09:00pm 11.6 NNW 2 6 1030.4 - 0.0 - - 10 - - - -
23/08:30pm 10.7 CALM 0 5 1030.5 - 0.0 - - 10 - - - -
23/08:00pm 11.4 CALM 0 0 1030.5 - 0.0 - Partly cloudy 10 - - - -
23/07:30pm 11.8 CALM 0 0 1030.4 - 0.0 - Partly cloudy 10 - - - -
23/07:00pm 12.2 CALM 0 0 1030.3 - 0.0 - Partly cloudy 10 - - - -
23/06:30pm 13.1 CALM 0 0 1030.1 - 0.0 - - 10 - - - -
23/06:00pm 14.2 N 4 7 1029.9 - 0.0 - - 10 - - - -
23/05:30pm 14.5 N 4 8 1029.7 - 0.0 - - 10 - - - -
23/05:00pm 15.0 NNE 7 11 1029.4 - 0.0 - Partly cloudy 10 - - - -
23/04:30pm 15.4 NNE 7 12 1029.2 - 0.0 - - 10 - - - -
23/04:00pm 16.2 NNE 7 11 1029.2 - 0.0 - - 10 - - - -
23/03:30pm 16.8 NE 8 12 1029.2 - 0.0 - - 10 - - - -
23/03:00pm 16.7 ENE 9 13 1029.3 - 0.0 - - 10 - - - -
23/02:30pm 16.7 ENE 8 11 1029.3 - 0.0 - - 10 - - - -
23/02:00pm 17.0 ENE 9 12 1029.6 - 0.0 - - 10 - - - -
23/01:30pm 17.7 E 7 10 1029.8 - 0.0 - - 10 - - - -
23/01:00pm 17.0 E 9 13 1030.1 - 0.0 - Partly cloudy 10 - - - -
23/12:30pm 16.7 ENE 8 11 1030.5 - 0.0 - Partly cloudy 10 - - - -
23/12:00pm 15.8 E 8 11 1030.9 - 0.0 - Cloudy 10 - - - -
23/11:30am 16.0 ENE 4 7 1031.3 - 0.0 - Partly cloudy 10 - - - -
23/11:00am 15.8 ESE 6 8 1031.8 - 0.0 - - 10 - - - -
23/10:30am 15.6 CALM 0 0 1032.1 - 0.0 - - 10 - - - -
23/10:00am 14.7 WNW 1 5 1032.2 - 0.0 - - 10 - - - -
23/09:30am 13.8 CALM 0 0 1032.2 - 0.0 - - 10 - - - -
23/09:00am 12.1 CALM 0 0 1032.3 - 4.4 - - 10 - - - -
23/08:30am 10.9 CALM 0 0 1032.4 - 4.4 - - 10 - - - -
23/08:00am 10.3 CALM 0 0 1032.2 - 4.4 - - 10 - - - -
23/07:30am 8.4 CALM 0 0 1032.1 - 4.4 - Partly cloudy 10 - - - -
23/07:00am 7.0 SW 3 6 1031.8 - 4.4 - - 10 - - - -
23/06:30am 7.1 CALM 0 0 1031.4 - 4.4 - - 10 - - - -
23/06:26am 7.4 CALM 0 0 1031.3 - 4.4 - - 10 - - - -
23/06:10am 7.1 CALM 0 0 1031.2 - 4.4 - Partly cloudy 5 - - - -
23/06:00am 7.5 CALM 0 0 1031.2 - 4.4 - Cloudy 10 - - - -
23/05:30am 7.5 CALM 0 0 1031.1 - 4.4 - Partly cloudy 10 - - - -
23/05:00am 7.9 CALM 0 0 1030.8 - 4.4 - Partly cloudy 9 - - - -
23/04:50am 7.7 CALM 0 0 1030.8 - 4.4 - Partly cloudy 10 - - - -
23/04:30am 7.8 CALM 0 0 1030.8 - 4.4 - Partly cloudy 3 - - - -
23/04:12am 7.8 CALM 0 0 1030.8 - 4.4 - Partly cloudy 5 - - - -
23/04:00am 7.5 CALM 0 0 1030.7 - 4.4 - - 9 - - - -
23/03:57am 7.7 CALM 0 0 1030.7 - 4.4 - - 10 - - - -
23/03:30am 8.4 CALM 0 0 1030.8 - 4.4 - Partly cloudy 5 - - - -
23/03:00am 8.7 CALM 0 0 1031.0 - 4.4 - Cloudy 8 - - - -
23/02:30am 9.1 CALM 0 0 1031.1 - 4.2 - Partly cloudy 9 - - - -
23/02:00am 9.0 CALM 0 0 1031.3 - 4.2 - Partly cloudy 7 - - - -
23/01:30am 9.1 CALM 0 0 1031.6 - 4.2 - Partly cloudy 10 - - - -
23/01:26am 9.2 CALM 0 0 1031.6 - 4.2 - Partly cloudy 10 - - - -
23/01:18am 9.5 CALM 0 0 1031.6 - 4.2 - Partly cloudy 6 - - - -
23/01:02am 9.8 CALM 0 0 1031.9 - 4.2 - Partly cloudy 5 - - - -
23/01:00am 9.8 CALM 0 0 1032.0 - 4.2 - Partly cloudy 7 - - - -
23/12:30am 9.4 CALM 0 0 1031.8 - 4.2 - Partly cloudy 10 - - - -
23/12:16am 9.4 CALM 0 0 1031.8 - 4.2 - Partly cloudy 6 - - - -
23/12:00am 9.1 CALM 0 0 1031.9 - 4.2 - Cloudy 4 - - - -
 
Date/Time
EST
Temp

°C
Wind Pressure Rain
since 9am
mm
Weather Cloud Vis
km
Sea
Height
m
Swell
Dir
 
Speed
knots
Gust
knots
hPa Trend Height
m
Period
s
Dir
22/11:30pm 9.9 CALM 0 0 1031.9 - 4.2 - Partly cloudy 7 - - - -
22/11:00pm 9.9 CALM 0 0 1032.0 - 4.2 - Partly cloudy 1 - - - -
22/10:56pm 10.1 CALM 0 0 1032.1 - 4.2 - Partly cloudy 4 - - - -
22/10:30pm 11.0 CALM 0 4 1032.4 - 4.2 - Partly cloudy 10 - - - -
22/10:00pm 11.3 W 3 5 1032.4 - 4.2 - Partly cloudy 10 - - - -
22/09:52pm 11.6 W 4 6 1032.5 - 4.2 - Partly cloudy 10 - - - -
22/09:40pm 11.6 NW 4 6 1032.6 - 4.0 - Partly cloudy 5 - - - -
22/09:30pm 11.5 NNW 1 5 1032.6 - 4.0 - Partly cloudy 10 - - - -
22/09:00pm 11.7 WNW 4 5 1032.5 - 4.0 - Cloudy 10 - - - -
22/08:58pm 11.8 WNW 3 5 1032.5 - 4.0 - Partly cloudy 10 - - - -
22/08:53pm 11.8 WNW 4 7 1032.4 - 4.0 - Partly cloudy 9 - - - -
22/08:32pm 11.5 N 4 6 1032.5 - 3.6 - Partly cloudy 1 - - - -
22/08:30pm 11.5 N 4 8 1032.5 - 3.4 - Partly cloudy 0.9 - - - -
22/08:21pm 11.5 SSE 1 8 1032.6 - 1.2 - Partly cloudy 4 - - - -
22/08:00pm 11.6 NW 6 7 1032.2 - 0.0 - Partly cloudy 10 - - - -
22/07:30pm 11.8 CALM 0 0 1032.1 - 0.0 - Partly cloudy 10 - - - -
22/07:00pm 11.8 NW 5 7 1032.0 - 0.0 - Partly cloudy 10 - - - -
22/06:30pm 12.1 NW 5 7 1031.7 - 0.0 - Partly cloudy 10 - - - -
22/06:00pm 13.4 N 3 6 1031.5 - 0.0 - Cloudy 10 - - - -
22/05:30pm 13.5 CALM 0 0 1031.3 - 0.0 - Partly cloudy 10 - - - -
22/05:00pm 14.5 ENE 5 7 1031.1 - 0.0 - - 10 - - - -
22/04:30pm 14.8 ENE 5 9 1031.1 - 0.0 - - 10 - - - -
22/04:00pm 16.1 E 6 9 1030.9 - 0.0 - - 10 - - - -
22/03:30pm 16.5 E 6 10 1030.8 - 0.0 - - 10 - - - -
22/03:00pm 16.9 E 7 11 1031.0 - 0.0 - - 10 - - - -
22/02:30pm 17.0 E 7 10 1031.2 - 0.0 - - 10 - - - -
22/02:00pm 16.8 E 6 9 1031.3 - 0.0 - - 10 - - - -
22/01:30pm 17.2 E 6 9 1031.5 - 0.0 - - 10 - - - -
22/01:00pm 17.1 E 5 7 1031.7 - 0.0 - - 10 - - - -
22/12:30pm 16.6 E 4 7 1032.0 - 0.0 - - 10 - - - -
22/12:00pm 16.8 E 5 8 1032.5 - 0.0 - Cloudy 10 - - - -
22/11:30am 16.0 E 6 9 1032.9 - 0.0 - Partly cloudy 10 - - - -
22/11:00am 17.3 E 4 7 1033.3 - 0.0 - Partly cloudy 10 - - - -
22/10:30am 15.8 N 4 6 1033.4 - 0.0 - - 10 - - - -
22/10:00am 14.4 NW 3 5 1033.5 - 0.0 - Partly cloudy 10 - - - -
22/09:30am 12.9 NW 5 6 1033.5 - 0.0 - Partly cloudy 10 - - - -
22/09:00am 12.6 NW 5 7 1033.5 - 4.2 - - 10 - - - -
22/08:30am 11.7 WNW 4 6 1033.5 - 4.2 - Partly cloudy 10 - - - -
22/08:00am 10.3 CALM 0 0 1033.4 - 4.2 - - 10 - - - -
22/07:30am 9.2 SW 1 4 1033.1 - 4.2 - - 8 - - - -
22/07:29am 9.0 SW 2 4 1033.1 - 4.2 - - 8 - - - -
22/07:12am 8.4 WSW 4 5 1032.8 - 4.2 - - 5 - - - -
22/07:00am 8.4 WSW 3 4 1032.7 - 4.2 - Partly cloudy 10 - - - -
22/06:42am 8.7 SW 3 4 1032.5 - 4.2 - Partly cloudy 10 - - - -
22/06:31am 8.6 SW 3 4 1032.4 - 4.2 - Partly cloudy 5 - - - -
22/06:30am 8.6 SW 3 4 1032.4 - 4.2 - Partly cloudy 6 - - - -
22/06:00am 9.3 W 4 6 1032.2 - 4.2 - - 10 - - - -
22/05:30am 9.7 WNW 5 7 1031.9 - 4.2 - Partly cloudy 10 - - - -
22/05:15am 9.9 W 4 5 1032.0 - 4.2 - Partly cloudy 6 - - - -
22/05:00am 9.9 CALM 0 5 1032.0 - 4.0 - Partly cloudy 5 - - - -
22/04:59am 9.8 CALM 0 3 1032.0 - 4.0 - Partly cloudy 6 - - - -
22/04:40am 9.6 SW 4 5 1032.0 - 4.0 - Partly cloudy 5 - - - -
22/04:30am 9.4 SSW 4 6 1031.9 - 3.8 - Partly cloudy 10 - - - -
22/04:20am 9.4 SSW 4 6 1031.8 - 3.6 - Partly cloudy 10 - - - -
22/04:19am 9.4 SSW 4 6 1031.8 - 3.6 - Partly cloudy 10 - - - -
22/04:00am 10.0 WNW 6 8 1031.7 - 3.6 - Partly cloudy 2 - - - -
22/03:52am 10.0 NW 4 6 1031.8 - 2.6 - Partly cloudy 5 - - - -
22/03:47am 10.0 NW 2 6 1031.9 - 2.2 - Partly cloudy 10 - - - -
22/03:46am 9.9 NW 1 6 1031.9 - 2.2 - Partly cloudy 10 - - - -
22/03:30am 9.6 WNW 3 5 1031.7 - 2.2 - Partly cloudy 5 - - - -
22/03:12am 9.2 WNW 6 7 1031.6 - 2.0 - Partly cloudy 10 - - - -
22/03:00am 9.3 W 4 6 1031.6 - 2.0 - Cloudy 10 - - - -
22/02:39am 9.5 S 4 8 1031.7 - 2.0 - Partly cloudy 9 - - - -
22/02:30am 9.3 SW 4 8 1031.9 - 2.0 - Partly cloudy 10 - - - -
22/02:10am 8.8 W 3 5 1031.9 - 2.0 - Partly cloudy 5 - - - -
22/02:00am 9.1 W 4 5 1032.0 - 2.0 - Partly cloudy 10 - - - -
22/01:30am 9.3 SW 4 7 1032.2 - 2.0 - Partly cloudy 10 - - - -
22/01:23am 9.5 WSW 3 5 1032.2 - 2.0 - Partly cloudy 10 - - - -
22/01:00am 9.3 WSW 1 4 1032.3 - 1.6 - Partly cloudy 4 - - - -
22/12:51am 9.3 SW 4 5 1032.3 - 1.4 - Partly cloudy 5 - - - -
22/12:30am 8.7 CALM 0 0 1032.3 - 1.4 - Partly cloudy 10 - - - -
22/12:00am 9.2 SW 4 7 1032.5 - 1.4 - Cloudy 10 - - - -
 
Date/Time
EST
Temp

°C
Wind Pressure Rain
since 9am
mm
Weather Cloud Vis
km
Sea
Height
m
Swell
Dir
 
Speed
knots
Gust
knots
hPa Trend Height
m
Period
s
Dir
21/11:49pm 9.3 CALM 0 0 1032.4 - 1.4 - Partly cloudy 10 - - - -
21/11:30pm 9.8 WSW 4 5 1032.5 - 1.4 - Partly cloudy 4 - - - -
21/11:23pm 9.6 WNW 4 5 1032.5 - 1.0 - Partly cloudy 5 - - - -
21/11:21pm 9.5 WNW 4 5 1032.5 - 1.0 - Partly cloudy 6 - - - -
21/11:00pm 9.1 WSW 3 4 1032.5 - 1.0 - Partly cloudy 5 - - - -
21/10:58pm 9.2 WSW 3 4 1032.5 - 1.0 - Partly cloudy 5 - - - -
21/10:30pm 9.8 W 4 6 1032.5 - 1.0 - Partly cloudy 10 - - - -
21/10:01pm 10.4 WNW 6 7 1032.5 - 1.0 - Partly cloudy 10 - - - -
21/10:00pm 10.4 WNW 6 7 1032.5 - 1.0 - Partly cloudy 10 - - - -
21/09:48pm 9.9 CALM 0 0 1032.5 - 1.0 - Partly cloudy 5 - - - -
21/09:30pm 10.1 CALM 0 4 1032.4 - 1.0 - Partly cloudy 10 - - - -
21/09:00pm 10.9 WNW 4 6 1032.4 - 1.0 - Cloudy 10 - - - -
21/08:39pm 11.1 W 4 5 1032.2 - 1.0 - Partly cloudy 10 - - - -
21/08:30pm 11.1 SW 3 7 1032.1 - 1.0 - Partly cloudy 6 - - - -
21/08:09pm 10.9 S 1 6 1032.2 - 0.4 - Partly cloudy 5 - - - -
21/08:00pm 10.5 CALM 0 0 1032.0 - 0.0 - Partly cloudy 10 - - - -
21/07:30pm 10.7 SW 2 6 1031.8 - 0.0 - Partly cloudy 10 - - - -
21/07:00pm 11.5 W 1 4 1031.5 - 0.0 - Partly cloudy 10 - - - -
21/06:30pm 12.2 SW 5 6 1031.2 - 0.0 - Partly cloudy 10 - - - -
21/06:00pm 12.0 S 3 8 1031.0 - 0.0 - Cloudy 10 - - - -
21/05:30pm 13.0 S 4 6 1030.6 - 0.0 - - 10 - - - -
21/05:00pm 14.1 SSE 5 6 1030.2 - 0.0 - - 10 - - - -
21/04:30pm 15.1 SSE 6 9 1030.1 - 0.0 - Partly cloudy 10 - - - -
21/04:00pm 15.5 SE 6 9 1029.9 - 0.0 - Partly cloudy 10 - - - -
21/03:30pm 15.4 SE 8 10 1029.7 - 0.0 - - 10 - - - -
21/03:00pm 16.5 ESE 5 8 1029.7 - 0.0 - Cloudy 10 - - - -
21/02:30pm 16.8 ESE 5 8 1029.8 - 0.0 - Partly cloudy 10 - - - -
21/02:00pm 16.3 ESE 2 6 1029.9 - 0.0 - Partly cloudy 10 - - - -
21/01:30pm 15.7 ESE 4 7 1029.9 - 0.0 - Partly cloudy 10 - - - -
21/01:00pm 15.7 CALM 0 0 1030.2 - 0.0 - Partly cloudy 10 - - - -
21/12:30pm 14.8 E 3 5 1030.4 - 0.0 - Partly cloudy 10 - - - -
21/12:06pm 14.1 ENE 2 5 1030.7 - 0.0 - Partly cloudy 10 - - - -
21/12:00pm 13.9 SE 3 5 1030.8 - 0.0 - Cloudy 9 - - - -
21/11:46am 14.2 ESE 6 9 1031.0 - 0.0 - Partly cloudy 5 - - - -
21/11:30am 15.1 SE 3 6 1031.0 - 0.0 - Partly cloudy 10 - - - -
21/11:00am 14.8 SW 1 5 1031.2 - 0.0 - Partly cloudy 10 - - - -
21/10:30am 14.4 W 5 7 1031.3 - 0.0 - Partly cloudy 10 - - - -
21/10:00am 13.3 W 5 7 1031.4 - 0.0 - Partly cloudy 10 - - - -
21/09:30am 12.5 W 4 6 1031.3 - 0.0 - Partly cloudy 10 - - - -
21/09:00am 11.3 W 6 9 1031.2 - 0.0 - Cloudy 10 - - - -
21/08:30am 10.5 SW 2 6 1031.3 - 0.0 - Partly cloudy 10 - - - -
21/08:00am 10.3 WNW 5 7 1030.9 - 0.0 - Cloudy 10 - - - -
21/07:30am 8.9 WNW 6 7 1030.6 - 0.0 - Partly cloudy 10 - - - -
21/07:00am 7.9 SW 4 5 1030.4 - 0.0 - Partly cloudy 10 - - - -
21/06:30am 7.6 SSW 5 6 1030.1 - 0.0 - Partly cloudy 10 - - - -
21/06:00am 7.3 SSW 5 6 1029.8 - 0.0 - Cloudy 10 - - - -

Other Formats:

Comma delimited format used in spreadsheet applications
http://www.bom.gov.au/fwo/IDN60701/IDN60701.95929.axf

JavaScript Object Notation format (JSON) in row-major order
http://www.bom.gov.au/fwo/IDN60701/IDN60701.95929.json